sensor_id;sensor_type;location;lat;lon;timestamp;temperature;humidity
3542;DHT22;1785;47.388;8.538;2022-10-16T00:00:36;18.30;99.90
3542;DHT22;1785;47.388;8.538;2022-10-16T00:03:04;18.20;99.90
3542;DHT22;1785;47.388;8.538;2022-10-16T00:05:30;18.10;99.90
3542;DHT22;1785;47.388;8.538;2022-10-16T00:07:56;18.10;99.90
3542;DHT22;1785;47.388;8.538;2022-10-16T00:10:23;18.20;99.90
3542;DHT22;1785;47.388;8.538;2022-10-16T00:12:49;18.10;99.90
3542;DHT22;1785;47.388;8.538;2022-10-16T00:15:16;18.10;99.90
3542;DHT22;1785;47.388;8.538;2022-10-16T00:17:43;18.10;99.90
3542;DHT22;1785;47.388;8.538;2022-10-16T00:20:09;18.10;99.90
3542;DHT22;1785;47.388;8.538;2022-10-16T00:22:35;18.10;99.90
3542;DHT22;1785;47.388;8.538;2022-10-16T00:25:04;18.00;99.90
3542;DHT22;1785;47.388;8.538;2022-10-16T00:27:30;18.10;99.90
3542;DHT22;1785;47.388;8.538;2022-10-16T00:29:56;18.10;99.90
3542;DHT22;1785;47.388;8.538;2022-10-16T00:32:23;18.10;99.90
3542;DHT22;1785;47.388;8.538;2022-10-16T00:34:50;18.20;99.90
3542;DHT22;1785;47.388;8.538;2022-10-16T00:37:16;18.30;99.90
3542;DHT22;1785;47.388;8.538;2022-10-16T00:39:42;18.40;99.90
3542;DHT22;1785;47.388;8.538;2022-10-16T00:42:11;18.40;99.90
3542;DHT22;1785;47.388;8.538;2022-10-16T00:44:46;18.40;99.90
3542;DHT22;1785;47.388;8.538;2022-10-16T00:47:18;18.30;99.90
3542;DHT22;1785;47.388;8.538;2022-10-16T00:49:46;18.30;99.90
3542;DHT22;1785;47.388;8.538;2022-10-16T00:52:13;18.30;99.90
3542;DHT22;1785;47.388;8.538;2022-10-16T00:54:40;18.40;99.90
3542;DHT22;1785;47.388;8.538;2022-10-16T00:57:07;18.40;99.90
3542;DHT22;1785;47.388;8.538;2022-10-16T00:59:39;18.30;99.90
3542;DHT22;1785;47.388;8.538;2022-10-16T01:02:07;18.30;99.90
3542;DHT22;1785;47.388;8.538;2022-10-16T01:04:35;18.40;99.90
3542;DHT22;1785;47.388;8.538;2022-10-16T01:07:09;18.20;99.90
3542;DHT22;1785;47.388;8.538;2022-10-16T01:09:45;18.30;99.90
3542;DHT22;1785;47.388;8.538;2022-10-16T01:12:17;18.30;99.90
3542;DHT22;1785;47.388;8.538;2022-10-16T01:14:53;18.40;99.90
3542;DHT22;1785;47.388;8.538;2022-10-16T01:17:22;18.40;99.90
3542;DHT22;1785;47.388;8.538;2022-10-16T01:20:03;18.50;99.90
3542;DHT22;1785;47.388;8.538;2022-10-16T01:22:39;18.50;99.90
3542;DHT22;1785;47.388;8.538;2022-10-16T01:25:13;18.40;99.90
3542;DHT22;1785;47.388;8.538;2022-10-16T01:27:44;18.40;99.90
3542;DHT22;1785;47.388;8.538;2022-10-16T01:30:15;18.30;99.90
3542;DHT22;1785;47.388;8.538;2022-10-16T01:32:47;18.10;99.90
3542;DHT22;1785;47.388;8.538;2022-10-16T01:35:18;18.10;99.90
3542;DHT22;1785;47.388;8.538;2022-10-16T01:37:51;18.00;99.90
3542;DHT22;1785;47.388;8.538;2022-10-16T01:40:20;17.90;99.90
3542;DHT22;1785;47.388;8.538;2022-10-16T01:42:53;17.70;99.90
3542;DHT22;1785;47.388;8.538;2022-10-16T01:45:20;17.80;99.90
3542;DHT22;1785;47.388;8.538;2022-10-16T01:47:48;18.00;99.90
3542;DHT22;1785;47.388;8.538;2022-10-16T01:50:16;18.10;99.90
3542;DHT22;1785;47.388;8.538;2022-10-16T01:52:46;18.20;99.90
3542;DHT22;1785;47.388;8.538;2022-10-16T01:55:19;18.30;99.90
3542;DHT22;1785;47.388;8.538;2022-10-16T01:57:47;18.40;99.90
3542;DHT22;1785;47.388;8.538;2022-10-16T02:00:17;18.30;99.90
3542;DHT22;1785;47.388;8.538;2022-10-16T02:02:47;18.20;99.90
3542;DHT22;1785;47.388;8.538;2022-10-16T02:05:18;18.10;99.90
3542;DHT22;1785;47.388;8.538;2022-10-16T02:07:47;18.10;99.90
3542;DHT22;1785;47.388;8.538;2022-10-16T02:10:13;18.10;99.90
3542;DHT22;1785;47.388;8.538;2022-10-16T02:12:43;17.90;99.90
3542;DHT22;1785;47.388;8.538;2022-10-16T02:15:11;17.70;99.90
3542;DHT22;1785;47.388;8.538;2022-10-16T02:17:38;17.70;99.90
3542;DHT22;1785;47.388;8.538;2022-10-16T02:20:05;17.70;99.90
3542;DHT22;1785;47.388;8.538;2022-10-16T02:22:33;17.80;99.90
3542;DHT22;1785;47.388;8.538;2022-10-16T02:25:05;17.90;99.90
3542;DHT22;1785;47.388;8.538;2022-10-16T02:27:35;17.60;99.90
3542;DHT22;1785;47.388;8.538;2022-10-16T02:30:07;17.60;99.90
3542;DHT22;1785;47.388;8.538;2022-10-16T02:32:40;17.70;99.90
3542;DHT22;1785;47.388;8.538;2022-10-16T02:35:08;17.70;99.90
3542;DHT22;1785;47.388;8.538;2022-10-16T02:37:36;17.80;99.90
3542;DHT22;1785;47.388;8.538;2022-10-16T02:40:03;17.90;99.90
3542;DHT22;1785;47.388;8.538;2022-10-16T02:42:34;17.80;99.90
3542;DHT22;1785;47.388;8.538;2022-10-16T02:45:01;17.50;99.90
3542;DHT22;1785;47.388;8.538;2022-10-16T02:47:27;17.40;99.90
3542;DHT22;1785;47.388;8.538;2022-10-16T02:49:54;17.10;99.90
3542;DHT22;1785;47.388;8.538;2022-10-16T02:52:20;16.90;99.90
3542;DHT22;1785;47.388;8.538;2022-10-16T02:54:47;16.90;99.90
3542;DHT22;1785;47.388;8.538;2022-10-16T02:57:13;16.90;99.90
3542;DHT22;1785;47.388;8.538;2022-10-16T02:59:39;17.10;99.90
3542;DHT22;1785;47.388;8.538;2022-10-16T03:02:05;17.30;99.90
3542;DHT22;1785;47.388;8.538;2022-10-16T03:04:31;17.50;99.90
3542;DHT22;1785;47.388;8.538;2022-10-16T03:06:58;17.30;99.90
3542;DHT22;1785;47.388;8.538;2022-10-16T03:09:25;17.30;99.90
3542;DHT22;1785;47.388;8.538;2022-10-16T03:11:51;17.50;99.90
3542;DHT22;1785;47.388;8.538;2022-10-16T03:14:17;17.60;99.90
3542;DHT22;1785;47.388;8.538;2022-10-16T03:16:44;17.70;99.90
3542;DHT22;1785;47.388;8.538;2022-10-16T03:19:10;17.80;99.90
3542;DHT22;1785;47.388;8.538;2022-10-16T03:21:36;17.80;99.90
3542;DHT22;1785;47.388;8.538;2022-10-16T03:24:04;17.20;99.90
3542;DHT22;1785;47.388;8.538;2022-10-16T03:26:30;17.00;99.90
3542;DHT22;1785;47.388;8.538;2022-10-16T03:28:56;17.10;99.90
3542;DHT22;1785;47.388;8.538;2022-10-16T03:31:23;17.20;99.90
3542;DHT22;1785;47.388;8.538;2022-10-16T03:33:49;17.30;99.90
3542;DHT22;1785;47.388;8.538;2022-10-16T03:36:15;17.40;99.90
3542;DHT22;1785;47.388;8.538;2022-10-16T03:38:42;17.50;99.90
3542;DHT22;1785;47.388;8.538;2022-10-16T03:41:09;17.50;99.90
3542;DHT22;1785;47.388;8.538;2022-10-16T03:43:35;17.60;99.90
3542;DHT22;1785;47.388;8.538;2022-10-16T03:46:01;17.50;99.90
3542;DHT22;1785;47.388;8.538;2022-10-16T03:48:29;17.30;99.90
3542;DHT22;1785;47.388;8.538;2022-10-16T03:50:55;17.10;99.90
3542;DHT22;1785;47.388;8.538;2022-10-16T03:53:22;16.60;99.90
3542;DHT22;1785;47.388;8.538;2022-10-16T03:55:48;16.80;99.90
3542;DHT22;1785;47.388;8.538;2022-10-16T03:58:15;17.00;99.90
3542;DHT22;1785;47.388;8.538;2022-10-16T04:00:42;17.00;99.90
3542;DHT22;1785;47.388;8.538;2022-10-16T04:03:08;17.00;99.90
3542;DHT22;1785;47.388;8.538;2022-10-16T04:05:34;17.10;99.90
3542;DHT22;1785;47.388;8.538;2022-10-16T04:08:00;17.10;99.90
3542;DHT22;1785;47.388;8.538;2022-10-16T04:10:27;17.20;99.90
3542;DHT22;1785;47.388;8.538;2022-10-16T04:12:53;17.10;99.90
3542;DHT22;1785;47.388;8.538;2022-10-16T04:15:22;17.10;99.90
3542;DHT22;1785;47.388;8.538;2022-10-16T04:17:48;17.10;99.90
3542;DHT22;1785;47.388;8.538;2022-10-16T04:20:14;17.20;99.90
3542;DHT22;1785;47.388;8.538;2022-10-16T04:22:41;17.20;99.90
3542;DHT22;1785;47.388;8.538;2022-10-16T04:25:08;17.20;99.90
3542;DHT22;1785;47.388;8.538;2022-10-16T04:27:34;17.20;99.90
3542;DHT22;1785;47.388;8.538;2022-10-16T04:30:00;17.20;99.90
3542;DHT22;1785;47.388;8.538;2022-10-16T04:32:27;17.30;99.90
3542;DHT22;1785;47.388;8.538;2022-10-16T04:34:54;17.30;99.90
3542;DHT22;1785;47.388;8.538;2022-10-16T04:37:23;17.40;99.90
3542;DHT22;1785;47.388;8.538;2022-10-16T04:39:49;17.30;99.90
3542;DHT22;1785;47.388;8.538;2022-10-16T04:42:16;17.20;99.90
3542;DHT22;1785;47.388;8.538;2022-10-16T04:44:42;17.10;99.90
3542;DHT22;1785;47.388;8.538;2022-10-16T04:47:08;17.10;99.90
3542;DHT22;1785;47.388;8.538;2022-10-16T04:49:35;17.20;99.90
3542;DHT22;1785;47.388;8.538;2022-10-16T04:52:02;17.30;99.90
3542;DHT22;1785;47.388;8.538;2022-10-16T04:54:28;17.30;99.90
3542;DHT22;1785;47.388;8.538;2022-10-16T04:56:55;17.20;99.90
3542;DHT22;1785;47.388;8.538;2022-10-16T04:59:22;17.10;99.90
3542;DHT22;1785;47.388;8.538;2022-10-16T05:01:48;17.20;99.90
3542;DHT22;1785;47.388;8.538;2022-10-16T05:04:14;17.30;99.90
3542;DHT22;1785;47.388;8.538;2022-10-16T05:06:42;17.30;99.90
3542;DHT22;1785;47.388;8.538;2022-10-16T05:09:08;17.20;99.90
3542;DHT22;1785;47.388;8.538;2022-10-16T05:11:35;17.20;99.90
3542;DHT22;1785;47.388;8.538;2022-10-16T05:14:01;17.10;99.90
3542;DHT22;1785;47.388;8.538;2022-10-16T05:16:27;17.20;99.90
3542;DHT22;1785;47.388;8.538;2022-10-16T05:18:54;17.20;99.90
3542;DHT22;1785;47.388;8.538;2022-10-16T05:21:20;17.20;99.90
3542;DHT22;1785;47.388;8.538;2022-10-16T05:23:48;17.20;99.90
3542;DHT22;1785;47.388;8.538;2022-10-16T05:26:14;17.30;99.90
3542;DHT22;1785;47.388;8.538;2022-10-16T05:28:40;17.20;99.90
3542;DHT22;1785;47.388;8.538;2022-10-16T05:31:07;17.00;99.90
3542;DHT22;1785;47.388;8.538;2022-10-16T05:33:35;16.90;99.90
3542;DHT22;1785;47.388;8.538;2022-10-16T05:36:02;17.10;99.90
3542;DHT22;1785;47.388;8.538;2022-10-16T05:38:28;17.00;99.90
3542;DHT22;1785;47.388;8.538;2022-10-16T05:40:55;16.90;99.90
3542;DHT22;1785;47.388;8.538;2022-10-16T05:43:22;17.00;99.90
3542;DHT22;1785;47.388;8.538;2022-10-16T05:45:55;17.20;99.90
3542;DHT22;1785;47.388;8.538;2022-10-16T05:48:22;17.30;99.90
3542;DHT22;1785;47.388;8.538;2022-10-16T05:50:48;17.30;99.90
3542;DHT22;1785;47.388;8.538;2022-10-16T05:53:15;17.30;99.90
3542;DHT22;1785;47.388;8.538;2022-10-16T05:55:41;17.40;99.90
3542;DHT22;1785;47.388;8.538;2022-10-16T05:58:08;17.40;99.90
3542;DHT22;1785;47.388;8.538;2022-10-16T06:00:34;17.40;99.90
3542;DHT22;1785;47.388;8.538;2022-10-16T06:03:00;17.40;99.90
3542;DHT22;1785;47.388;8.538;2022-10-16T06:05:28;17.30;99.90
3542;DHT22;1785;47.388;8.538;2022-10-16T06:07:54;17.20;99.90
3542;DHT22;1785;47.388;8.538;2022-10-16T06:10:20;17.20;99.90
3542;DHT22;1785;47.388;8.538;2022-10-16T06:12:46;17.40;99.90
3542;DHT22;1785;47.388;8.538;2022-10-16T06:15:14;17.50;99.90
3542;DHT22;1785;47.388;8.538;2022-10-16T06:17:40;17.50;99.90
3542;DHT22;1785;47.388;8.538;2022-10-16T06:20:06;17.50;99.90
3542;DHT22;1785;47.388;8.538;2022-10-16T06:22:33;17.50;99.90
3542;DHT22;1785;47.388;8.538;2022-10-16T06:24:59;17.50;99.90
3542;DHT22;1785;47.388;8.538;2022-10-16T06:27:25;17.50;99.90
3542;DHT22;1785;47.388;8.538;2022-10-16T06:29:52;17.40;99.90
3542;DHT22;1785;47.388;8.538;2022-10-16T06:32:19;17.30;99.90
3542;DHT22;1785;47.388;8.538;2022-10-16T06:34:45;17.20;99.90
3542;DHT22;1785;47.388;8.538;2022-10-16T06:37:11;17.20;99.90
3542;DHT22;1785;47.388;8.538;2022-10-16T06:39:37;17.40;99.90
3542;DHT22;1785;47.388;8.538;2022-10-16T06:42:04;17.40;99.90
3542;DHT22;1785;47.388;8.538;2022-10-16T06:44:30;17.40;99.90
3542;DHT22;1785;47.388;8.538;2022-10-16T06:46:56;17.30;99.90
3542;DHT22;1785;47.388;8.538;2022-10-16T06:49:23;17.20;99.90
3542;DHT22;1785;47.388;8.538;2022-10-16T06:51:50;17.30;99.90
3542;DHT22;1785;47.388;8.538;2022-10-16T06:54:16;17.30;99.90
3542;DHT22;1785;47.388;8.538;2022-10-16T06:56:43;17.40;99.90
3542;DHT22;1785;47.388;8.538;2022-10-16T06:59:09;17.40;99.90
3542;DHT22;1785;47.388;8.538;2022-10-16T07:01:35;17.50;99.90
3542;DHT22;1785;47.388;8.538;2022-10-16T07:04:02;17.50;99.90
3542;DHT22;1785;47.388;8.538;2022-10-16T07:06:31;17.60;99.90
3542;DHT22;1785;47.388;8.538;2022-10-16T07:08:57;17.60;99.90
3542;DHT22;1785;47.388;8.538;2022-10-16T07:11:24;17.60;99.90
3542;DHT22;1785;47.388;8.538;2022-10-16T07:13:51;17.60;99.90
3542;DHT22;1785;47.388;8.538;2022-10-16T07:16:19;17.50;99.90
3542;DHT22;1785;47.388;8.538;2022-10-16T07:18:46;17.50;99.90
3542;DHT22;1785;47.388;8.538;2022-10-16T07:21:16;17.60;99.90
3542;DHT22;1785;47.388;8.538;2022-10-16T07:23:43;17.60;99.90
3542;DHT22;1785;47.388;8.538;2022-10-16T07:26:09;17.40;99.90
3542;DHT22;1785;47.388;8.538;2022-10-16T07:28:36;17.20;99.90
3542;DHT22;1785;47.388;8.538;2022-10-16T07:31:03;17.40;99.90
3542;DHT22;1785;47.388;8.538;2022-10-16T07:33:30;17.50;99.90
3542;DHT22;1785;47.388;8.538;2022-10-16T07:35:57;17.50;99.90
3542;DHT22;1785;47.388;8.538;2022-10-16T07:38:23;17.50;99.90
3542;DHT22;1785;47.388;8.538;2022-10-16T07:40:57;17.60;99.90
3542;DHT22;1785;47.388;8.538;2022-10-16T07:43:24;17.70;99.90
3542;DHT22;1785;47.388;8.538;2022-10-16T07:45:50;17.70;99.90
3542;DHT22;1785;47.388;8.538;2022-10-16T07:48:17;17.70;99.90
3542;DHT22;1785;47.388;8.538;2022-10-16T07:50:43;17.50;99.90
3542;DHT22;1785;47.388;8.538;2022-10-16T07:53:10;17.40;99.90
3542;DHT22;1785;47.388;8.538;2022-10-16T07:55:37;17.30;99.90
3542;DHT22;1785;47.388;8.538;2022-10-16T07:58:04;17.30;99.90
3542;DHT22;1785;47.388;8.538;2022-10-16T08:00:31;17.20;99.90
3542;DHT22;1785;47.388;8.538;2022-10-16T08:02:57;17.50;99.90
3542;DHT22;1785;47.388;8.538;2022-10-16T08:05:25;17.50;99.90
3542;DHT22;1785;47.388;8.538;2022-10-16T08:07:52;17.50;99.90
3542;DHT22;1785;47.388;8.538;2022-10-16T08:10:20;17.60;99.90
3542;DHT22;1785;47.388;8.538;2022-10-16T08:12:46;17.50;99.90
3542;DHT22;1785;47.388;8.538;2022-10-16T08:15:13;17.70;99.90
3542;DHT22;1785;47.388;8.538;2022-10-16T08:17:40;17.90;99.90
3542;DHT22;1785;47.388;8.538;2022-10-16T08:20:07;17.90;99.90
3542;DHT22;1785;47.388;8.538;2022-10-16T08:22:33;18.00;99.90
3542;DHT22;1785;47.388;8.538;2022-10-16T08:25:00;18.30;99.90
3542;DHT22;1785;47.388;8.538;2022-10-16T08:27:31;18.30;99.90
3542;DHT22;1785;47.388;8.538;2022-10-16T08:29:57;18.30;99.90
3542;DHT22;1785;47.388;8.538;2022-10-16T08:32:24;18.40;99.90
3542;DHT22;1785;47.388;8.538;2022-10-16T08:34:50;18.50;99.90
3542;DHT22;1785;47.388;8.538;2022-10-16T08:37:16;18.50;99.90
3542;DHT22;1785;47.388;8.538;2022-10-16T08:39:43;18.50;99.90
3542;DHT22;1785;47.388;8.538;2022-10-16T08:42:21;18.50;99.90
3542;DHT22;1785;47.388;8.538;2022-10-16T08:45:07;18.50;99.90
3542;DHT22;1785;47.388;8.538;2022-10-16T08:47:48;18.50;99.90
3542;DHT22;1785;47.388;8.538;2022-10-16T08:50:21;18.60;99.90
3542;DHT22;1785;47.388;8.538;2022-10-16T08:52:49;18.60;99.90
3542;DHT22;1785;47.388;8.538;2022-10-16T08:55:30;18.60;99.90
3542;DHT22;1785;47.388;8.538;2022-10-16T08:57:59;18.70;99.90
3542;DHT22;1785;47.388;8.538;2022-10-16T09:00:26;18.80;99.90
3542;DHT22;1785;47.388;8.538;2022-10-16T09:02:59;18.60;99.90
3542;DHT22;1785;47.388;8.538;2022-10-16T09:05:52;18.60;99.90
3542;DHT22;1785;47.388;8.538;2022-10-16T09:08:29;18.70;99.90
3542;DHT22;1785;47.388;8.538;2022-10-16T09:10:59;18.90;99.90
3542;DHT22;1785;47.388;8.538;2022-10-16T09:13:31;19.00;99.90
3542;DHT22;1785;47.388;8.538;2022-10-16T09:16:12;19.00;99.90
3542;DHT22;1785;47.388;8.538;2022-10-16T09:18:48;18.70;99.90
3542;DHT22;1785;47.388;8.538;2022-10-16T09:21:21;18.40;99.90
3542;DHT22;1785;47.388;8.538;2022-10-16T09:23:50;18.90;99.90
3542;DHT22;1785;47.388;8.538;2022-10-16T09:26:16;19.20;99.90
3542;DHT22;1785;47.388;8.538;2022-10-16T09:28:45;19.30;99.90
3542;DHT22;1785;47.388;8.538;2022-10-16T09:31:16;19.00;99.90
3542;DHT22;1785;47.388;8.538;2022-10-16T09:33:46;19.00;99.90
3542;DHT22;1785;47.388;8.538;2022-10-16T09:36:13;19.20;99.90
3542;DHT22;1785;47.388;8.538;2022-10-16T09:38:40;19.20;99.90
3542;DHT22;1785;47.388;8.538;2022-10-16T09:41:15;19.30;99.90
3542;DHT22;1785;47.388;8.538;2022-10-16T09:43:47;19.50;99.90
3542;DHT22;1785;47.388;8.538;2022-10-16T09:46:30;19.60;99.90
3542;DHT22;1785;47.388;8.538;2022-10-16T09:48:59;19.60;99.90
3542;DHT22;1785;47.388;8.538;2022-10-16T09:51:29;19.70;99.90
3542;DHT22;1785;47.388;8.538;2022-10-16T09:53:58;19.80;99.90
3542;DHT22;1785;47.388;8.538;2022-10-16T09:56:27;20.00;99.90
3542;DHT22;1785;47.388;8.538;2022-10-16T09:58:55;20.00;99.90
3542;DHT22;1785;47.388;8.538;2022-10-16T10:01:26;19.90;99.90
3542;DHT22;1785;47.388;8.538;2022-10-16T10:03:56;20.10;99.90
3542;DHT22;1785;47.388;8.538;2022-10-16T10:06:28;20.10;99.90
3542;DHT22;1785;47.388;8.538;2022-10-16T10:08:58;20.20;99.90
3542;DHT22;1785;47.388;8.538;2022-10-16T10:11:48;20.30;99.90
3542;DHT22;1785;47.388;8.538;2022-10-16T10:14:30;20.40;99.90
3542;DHT22;1785;47.388;8.538;2022-10-16T10:17:10;20.40;99.90
3542;DHT22;1785;47.388;8.538;2022-10-16T10:19:41;20.40;99.90
3542;DHT22;1785;47.388;8.538;2022-10-16T10:22:25;20.40;99.90
3542;DHT22;1785;47.388;8.538;2022-10-16T10:25:19;20.50;99.90
3542;DHT22;1785;47.388;8.538;2022-10-16T10:28:00;20.70;99.90
3542;DHT22;1785;47.388;8.538;2022-10-16T10:30:36;20.80;99.90
3542;DHT22;1785;47.388;8.538;2022-10-16T10:33:15;20.90;99.90
3542;DHT22;1785;47.388;8.538;2022-10-16T10:35:50;21.00;99.90
3542;DHT22;1785;47.388;8.538;2022-10-16T10:38:28;20.90;99.90
3542;DHT22;1785;47.388;8.538;2022-10-16T10:41:07;21.30;99.90
3542;DHT22;1785;47.388;8.538;2022-10-16T10:43:50;21.20;99.90
3542;DHT22;1785;47.388;8.538;2022-10-16T10:46:31;21.40;99.90
3542;DHT22;1785;47.388;8.538;2022-10-16T10:49:14;21.30;99.90
3542;DHT22;1785;47.388;8.538;2022-10-16T10:51:51;21.30;99.90
3542;DHT22;1785;47.388;8.538;2022-10-16T10:54:24;21.40;99.90
3542;DHT22;1785;47.388;8.538;2022-10-16T10:56:59;21.30;99.90
3542;DHT22;1785;47.388;8.538;2022-10-16T10:59:43;21.30;99.90
3542;DHT22;1785;47.388;8.538;2022-10-16T11:02:18;21.40;99.90
3542;DHT22;1785;47.388;8.538;2022-10-16T11:04:58;21.50;99.90
3542;DHT22;1785;47.388;8.538;2022-10-16T11:07:32;21.50;99.90
3542;DHT22;1785;47.388;8.538;2022-10-16T11:10:07;21.60;99.90
3542;DHT22;1785;47.388;8.538;2022-10-16T11:12:40;21.70;99.90
3542;DHT22;1785;47.388;8.538;2022-10-16T11:15:14;21.70;99.90
3542;DHT22;1785;47.388;8.538;2022-10-16T11:17:44;21.80;99.90
3542;DHT22;1785;47.388;8.538;2022-10-16T11:20:18;22.00;99.90
3542;DHT22;1785;47.388;8.538;2022-10-16T11:22:48;22.10;99.90
3542;DHT22;1785;47.388;8.538;2022-10-16T11:25:21;22.10;99.90
3542;DHT22;1785;47.388;8.538;2022-10-16T11:27:52;22.00;99.90
3542;DHT22;1785;47.388;8.538;2022-10-16T11:30:24;22.10;99.90
3542;DHT22;1785;47.388;8.538;2022-10-16T11:33:02;22.00;99.90
3542;DHT22;1785;47.388;8.538;2022-10-16T11:35:39;22.00;99.90
3542;DHT22;1785;47.388;8.538;2022-10-16T11:38:14;22.00;99.90
3542;DHT22;1785;47.388;8.538;2022-10-16T11:40:45;22.20;99.90
3542;DHT22;1785;47.388;8.538;2022-10-16T11:43:17;22.00;99.90
3542;DHT22;1785;47.388;8.538;2022-10-16T11:45:49;22.20;99.90
3542;DHT22;1785;47.388;8.538;2022-10-16T11:48:24;22.50;99.90
3542;DHT22;1785;47.388;8.538;2022-10-16T11:50:56;22.60;99.90
3542;DHT22;1785;47.388;8.538;2022-10-16T11:53:37;22.80;99.90
3542;DHT22;1785;47.388;8.538;2022-10-16T11:56:07;22.60;99.90
3542;DHT22;1785;47.388;8.538;2022-10-16T11:58:36;22.80;99.90
3542;DHT22;1785;47.388;8.538;2022-10-16T12:01:16;22.90;99.90
3542;DHT22;1785;47.388;8.538;2022-10-16T12:03:46;22.90;99.90
3542;DHT22;1785;47.388;8.538;2022-10-16T12:06:23;22.70;99.90
3542;DHT22;1785;47.388;8.538;2022-10-16T12:08:52;22.60;99.90
3542;DHT22;1785;47.388;8.538;2022-10-16T12:11:34;22.60;99.90
3542;DHT22;1785;47.388;8.538;2022-10-16T12:14:16;22.60;99.90
3542;DHT22;1785;47.388;8.538;2022-10-16T12:16:53;22.90;99.90
3542;DHT22;1785;47.388;8.538;2022-10-16T12:19:20;23.00;99.90
3542;DHT22;1785;47.388;8.538;2022-10-16T12:21:48;23.10;99.90
3542;DHT22;1785;47.388;8.538;2022-10-16T12:24:35;23.40;99.90
3542;DHT22;1785;47.388;8.538;2022-10-16T12:27:05;23.50;99.90
3542;DHT22;1785;47.388;8.538;2022-10-16T12:29:35;23.60;99.90
3542;DHT22;1785;47.388;8.538;2022-10-16T12:32:04;23.70;99.90
3542;DHT22;1785;47.388;8.538;2022-10-16T12:34:37;23.70;99.90
3542;DHT22;1785;47.388;8.538;2022-10-16T12:37:11;23.90;99.90
3542;DHT22;1785;47.388;8.538;2022-10-16T12:39:39;23.90;99.90
3542;DHT22;1785;47.388;8.538;2022-10-16T12:42:21;23.90;99.90
3542;DHT22;1785;47.388;8.538;2022-10-16T12:44:48;24.00;99.90
3542;DHT22;1785;47.388;8.538;2022-10-16T12:47:20;24.00;99.90
3542;DHT22;1785;47.388;8.538;2022-10-16T12:49:50;23.90;99.90
3542;DHT22;1785;47.388;8.538;2022-10-16T12:52:26;23.90;99.90
3542;DHT22;1785;47.388;8.538;2022-10-16T12:54:56;24.40;99.90
3542;DHT22;1785;47.388;8.538;2022-10-16T12:57:39;24.40;99.90
3542;DHT22;1785;47.388;8.538;2022-10-16T13:00:18;24.60;99.90
3542;DHT22;1785;47.388;8.538;2022-10-16T13:06:13;24.70;99.90
3542;DHT22;1785;47.388;8.538;2022-10-16T13:09:01;24.90;99.90
3542;DHT22;1785;47.388;8.538;2022-10-16T13:11:48;25.00;99.90
3542;DHT22;1785;47.388;8.538;2022-10-16T13:14:39;25.00;99.90
3542;DHT22;1785;47.388;8.538;2022-10-16T13:17:13;24.90;99.90
3542;DHT22;1785;47.388;8.538;2022-10-16T13:19:45;24.80;99.90
3542;DHT22;1785;47.388;8.538;2022-10-16T13:22:20;24.70;99.90
3542;DHT22;1785;47.388;8.538;2022-10-16T13:24:57;24.80;99.90
3542;DHT22;1785;47.388;8.538;2022-10-16T13:27:35;24.80;99.90
3542;DHT22;1785;47.388;8.538;2022-10-16T13:30:12;24.70;99.90
3542;DHT22;1785;47.388;8.538;2022-10-16T13:32:39;24.50;99.90
3542;DHT22;1785;47.388;8.538;2022-10-16T13:35:19;24.70;99.90
3542;DHT22;1785;47.388;8.538;2022-10-16T13:37:45;24.60;99.90
3542;DHT22;1785;47.388;8.538;2022-10-16T13:40:19;24.60;99.90
3542;DHT22;1785;47.388;8.538;2022-10-16T13:42:46;24.80;99.90
3542;DHT22;1785;47.388;8.538;2022-10-16T13:45:18;24.90;99.90
3542;DHT22;1785;47.388;8.538;2022-10-16T13:47:45;24.80;99.90
3542;DHT22;1785;47.388;8.538;2022-10-16T13:50:13;24.70;99.90
3542;DHT22;1785;47.388;8.538;2022-10-16T13:52:41;25.10;99.90
3542;DHT22;1785;47.388;8.538;2022-10-16T13:55:11;25.00;99.90
3542;DHT22;1785;47.388;8.538;2022-10-16T13:57:38;24.80;99.90
3542;DHT22;1785;47.388;8.538;2022-10-16T14:00:18;25.00;99.90
3542;DHT22;1785;47.388;8.538;2022-10-16T14:02:51;25.20;99.90
3542;DHT22;1785;47.388;8.538;2022-10-16T14:05:19;25.20;99.90
3542;DHT22;1785;47.388;8.538;2022-10-16T14:07:49;25.20;99.90
3542;DHT22;1785;47.388;8.538;2022-10-16T14:10:23;25.40;99.90
3542;DHT22;1785;47.388;8.538;2022-10-16T14:12:57;25.30;99.90
3542;DHT22;1785;47.388;8.538;2022-10-16T14:15:25;25.10;99.90
3542;DHT22;1785;47.388;8.538;2022-10-16T14:17:52;25.30;99.90
3542;DHT22;1785;47.388;8.538;2022-10-16T14:20:22;25.50;99.90
3542;DHT22;1785;47.388;8.538;2022-10-16T14:22:59;25.40;99.90
3542;DHT22;1785;47.388;8.538;2022-10-16T14:25:28;25.40;99.90
3542;DHT22;1785;47.388;8.538;2022-10-16T14:28:01;25.30;99.90
3542;DHT22;1785;47.388;8.538;2022-10-16T14:30:30;25.20;99.90
3542;DHT22;1785;47.388;8.538;2022-10-16T14:32:58;24.80;99.90
3542;DHT22;1785;47.388;8.538;2022-10-16T14:35:32;24.80;99.90
3542;DHT22;1785;47.388;8.538;2022-10-16T14:38:00;24.70;99.90
3542;DHT22;1785;47.388;8.538;2022-10-16T14:40:29;24.90;99.90
3542;DHT22;1785;47.388;8.538;2022-10-16T14:42:56;25.00;99.90
3542;DHT22;1785;47.388;8.538;2022-10-16T14:45:26;24.90;99.90
3542;DHT22;1785;47.388;8.538;2022-10-16T14:47:55;24.90;99.90
3542;DHT22;1785;47.388;8.538;2022-10-16T14:50:22;24.80;99.90
3542;DHT22;1785;47.388;8.538;2022-10-16T14:52:49;24.70;99.90
3542;DHT22;1785;47.388;8.538;2022-10-16T14:55:15;24.70;99.90
3542;DHT22;1785;47.388;8.538;2022-10-16T14:57:43;24.70;99.90
3542;DHT22;1785;47.388;8.538;2022-10-16T15:00:15;24.20;99.90
3542;DHT22;1785;47.388;8.538;2022-10-16T15:02:42;24.20;99.90
3542;DHT22;1785;47.388;8.538;2022-10-16T15:05:14;24.40;99.90
3542;DHT22;1785;47.388;8.538;2022-10-16T15:07:41;24.50;99.90
3542;DHT22;1785;47.388;8.538;2022-10-16T15:10:08;24.20;99.90
3542;DHT22;1785;47.388;8.538;2022-10-16T15:12:35;24.20;99.90
3542;DHT22;1785;47.388;8.538;2022-10-16T15:15:01;24.20;99.90
3542;DHT22;1785;47.388;8.538;2022-10-16T15:17:29;24.10;99.90
3542;DHT22;1785;47.388;8.538;2022-10-16T15:19:55;24.00;99.90
3542;DHT22;1785;47.388;8.538;2022-10-16T15:22:24;23.80;99.90
3542;DHT22;1785;47.388;8.538;2022-10-16T15:24:51;23.90;99.90
3542;DHT22;1785;47.388;8.538;2022-10-16T15:27:17;24.10;99.90
3542;DHT22;1785;47.388;8.538;2022-10-16T15:29:44;24.10;99.90
3542;DHT22;1785;47.388;8.538;2022-10-16T15:32:10;24.10;99.90
3542;DHT22;1785;47.388;8.538;2022-10-16T15:34:37;24.30;99.90
3542;DHT22;1785;47.388;8.538;2022-10-16T15:37:04;24.20;99.90
3542;DHT22;1785;47.388;8.538;2022-10-16T15:39:30;24.40;99.90
3542;DHT22;1785;47.388;8.538;2022-10-16T15:41:57;24.70;99.90
3542;DHT22;1785;47.388;8.538;2022-10-16T15:44:24;24.70;99.90
3542;DHT22;1785;47.388;8.538;2022-10-16T15:46:55;24.80;99.90
3542;DHT22;1785;47.388;8.538;2022-10-16T15:49:22;24.50;99.90
3542;DHT22;1785;47.388;8.538;2022-10-16T15:51:48;24.60;99.90
3542;DHT22;1785;47.388;8.538;2022-10-16T15:54:14;24.20;99.90
3542;DHT22;1785;47.388;8.538;2022-10-16T15:56:42;24.20;99.90
3542;DHT22;1785;47.388;8.538;2022-10-16T15:59:08;24.10;99.90
3542;DHT22;1785;47.388;8.538;2022-10-16T16:01:35;24.20;99.90
3542;DHT22;1785;47.388;8.538;2022-10-16T16:04:02;24.30;99.90
3542;DHT22;1785;47.388;8.538;2022-10-16T16:06:29;24.30;99.90
3542;DHT22;1785;47.388;8.538;2022-10-16T16:08:56;24.30;99.90
3542;DHT22;1785;47.388;8.538;2022-10-16T16:11:22;24.20;99.90
3542;DHT22;1785;47.388;8.538;2022-10-16T16:13:49;24.20;99.90
3542;DHT22;1785;47.388;8.538;2022-10-16T16:16:17;24.30;99.90
3542;DHT22;1785;47.388;8.538;2022-10-16T16:18:45;24.20;99.90
3542;DHT22;1785;47.388;8.538;2022-10-16T16:21:14;24.10;99.90